Time;durP1;ratioP1;P1;durP2;ratioP2;P2;SDS_P1;SDS_P2;PMS_P1;PMS_P2;Temp;Humidity;BMP_temperature;BMP_pressure;BME280_temperature;BME280_humidity;BME280_pressure;Samples;Min_cycle;Max_cycle;Signal;HPM_P1;HPM_P2
2023/07/13 00:00:38;;;;;;;7.95;2.17;;;;;;;;;;4991373;28;92473;-77
2023/07/13 00:03:04;;;;;;;13.07;1.80;;;;;;;;;;4994433;28;93093;-77
2023/07/13 00:05:31;;;;;;;6.97;2.05;;;;;;;;;;4990576;28;92439;-78
2023/07/13 00:07:58;;;;;;;7.40;1.83;;;;;;;;;;4980072;28;92986;-78
2023/07/13 00:10:26;;;;;;;7.50;1.90;;;;;;;;;;5002309;28;92759;-78
2023/07/13 00:12:54;;;;;;;8.85;1.80;;;;;;;;;;4991530;28;92742;-80
2023/07/13 00:15:25;;;;;;;9.18;1.60;;;;;;;;;;4990640;28;93805;-78
2023/07/13 00:17:53;;;;;;;10.43;2.28;;;;;;;;;;4989149;28;95386;-78
2023/07/13 00:20:24;;;;;;;7.00;1.67;;;;;;;;;;4990618;28;92441;-78
2023/07/13 00:22:53;;;;;;;7.45;1.52;;;;;;;;;;4993673;28;93806;-78
2023/07/13 00:25:20;;;;;;;6.53;1.70;;;;;;;;;;4995756;28;92950;-78
2023/07/13 00:27:48;;;;;;;;;;;;;;;;;;4990770;28;92743;-78
2023/07/13 00:30:15;;;;;;;7.10;1.80;;;;;;;;;;4991836;28;104046;-79
2023/07/13 00:32:42;;;;;;;5.28;1.45;;;;;;;;;;4991503;28;93033;-78
2023/07/13 00:35:08;;;;;;;7.43;1.70;;;;;;;;;;4983283;28;92843;-79
2023/07/13 00:37:36;;;;;;;5.55;1.58;;;;;;;;;;4989041;28;94457;-79
2023/07/13 00:40:02;;;;;;;;;;;;;;;;;;4983987;28;92483;-78
2023/07/13 00:42:29;;;;;;;5.90;1.60;;;;;;;;;;5001301;28;95109;-78
2023/07/13 00:45:02;;;;;;;6.20;1.90;;;;;;;;;;4990804;28;96181;-79
2023/07/13 00:47:28;;;;;;;5.18;1.65;;;;;;;;;;4990969;28;92654;-78
2023/07/13 00:49:55;;;;;;;5.65;1.50;;;;;;;;;;4986650;28;92983;-79
2023/07/13 00:52:23;;;;;;;6.45;1.50;;;;;;;;;;4990729;28;92975;-78
2023/07/13 00:54:49;;;;;;;7.82;1.63;;;;;;;;;;4983044;28;95118;-78
2023/07/13 00:57:18;;;;;;;7.13;1.65;;;;;;;;;;5000167;28;93362;-79
2023/07/13 00:59:51;;;;;;;5.55;1.50;;;;;;;;;;4988598;28;92134;-78
2023/07/13 01:02:17;;;;;;;7.15;1.88;;;;;;;;;;4988394;28;92474;-79
2023/07/13 01:04:44;;;;;;;6.55;1.63;;;;;;;;;;4979550;28;93096;-78
2023/07/13 01:07:11;;;;;;;4.15;1.48;;;;;;;;;;4987991;28;95906;-78
2023/07/13 01:09:38;;;;;;;6.03;1.80;;;;;;;;;;4988636;28;94131;-78
2023/07/13 01:12:04;;;;;;;7.00;1.77;;;;;;;;;;4988570;28;92452;-78
2023/07/13 01:14:31;;;;;;;4.88;1.48;;;;;;;;;;4987830;28;95602;-78
2023/07/13 01:17:00;;;;;;;5.70;1.60;;;;;;;;;;4977984;28;95799;-77
2023/07/13 01:19:39;;;;;;;7.72;1.80;;;;;;;;;;4983416;28;94150;-77
2023/07/13 01:22:11;;;;;;;7.28;1.73;;;;;;;;;;4989950;28;93024;-77
2023/07/13 01:24:39;;;;;;;7.82;1.58;;;;;;;;;;4989776;28;92813;-78
2023/07/13 01:27:06;;;;;;;7.85;1.60;;;;;;;;;;4997647;28;92417;-76
2023/07/13 01:29:34;;;;;;;7.85;1.60;;;;;;;;;;4991007;28;93890;-77
2023/07/13 01:32:00;;;;;;;7.75;1.40;;;;;;;;;;4986622;28;94905;-77
2023/07/13 01:34:27;;;;;;;6.95;1.80;;;;;;;;;;4989700;28;95326;-77
2023/07/13 01:36:54;;;;;;;4.90;1.67;;;;;;;;;;4989234;28;94030;-77
2023/07/13 01:39:21;;;;;;;7.95;1.52;;;;;;;;;;4984812;28;92469;-77
2023/07/13 01:41:48;;;;;;;4.93;1.50;;;;;;;;;;4989683;28;93022;-77
2023/07/13 01:44:14;;;;;;;4.55;1.20;;;;;;;;;;4987210;28;95602;-77
2023/07/13 01:46:41;;;;;;;4.00;1.58;;;;;;;;;;4989872;28;92478;-77
2023/07/13 01:49:07;;;;;;;3.75;1.20;;;;;;;;;;4990424;28;92788;-78
2023/07/13 01:51:34;;;;;;;7.63;1.60;;;;;;;;;;4990492;28;94371;-80
2023/07/13 01:54:00;;;;;;;6.25;1.70;;;;;;;;;;4989666;28;93270;-77
2023/07/13 01:56:27;;;;;;;4.97;1.52;;;;;;;;;;4998159;28;95857;-78
2023/07/13 01:58:53;;;;;;;7.50;1.50;;;;;;;;;;4981855;28;92350;-78
2023/07/13 02:01:20;;;;;;;7.18;1.50;;;;;;;;;;4987133;28;94769;-78
2023/07/13 02:03:46;;;;;;;6.55;1.42;;;;;;;;;;4987648;28;94188;-78
2023/07/13 02:06:13;;;;;;;5.32;1.60;;;;;;;;;;4989776;28;92959;-78
2023/07/13 02:08:40;;;;;;;4.47;1.60;;;;;;;;;;4988700;28;95336;-78
2023/07/13 02:11:07;;;;;;;6.15;1.70;;;;;;;;;;5000140;28;93744;-78
2023/07/13 02:13:34;;;;;;;8.05;1.70;;;;;;;;;;4996176;28;91681;-78
2023/07/13 02:16:00;;;;;;;6.90;1.90;;;;;;;;;;4993751;28;93470;-80
2023/07/13 02:18:27;;;;;;;8.90;1.75;;;;;;;;;;4998375;28;92381;-78
2023/07/13 02:20:53;;;;;;;6.70;2.00;;;;;;;;;;4996809;28;94956;-79
2023/07/13 02:23:20;;;;;;;4.40;1.48;;;;;;;;;;4992762;28;92440;-78
2023/07/13 02:25:46;;;;;;;7.60;1.80;;;;;;;;;;4999114;28;92491;-78
2023/07/13 02:28:14;;;;;;;5.90;1.70;;;;;;;;;;4992211;28;95510;-78
2023/07/13 02:30:41;;;;;;;8.23;1.73;;;;;;;;;;4974131;28;94685;-78
2023/07/13 02:33:08;;;;;;;5.18;1.60;;;;;;;;;;4993929;28;92501;-78
2023/07/13 02:35:34;;;;;;;6.43;1.58;;;;;;;;;;4990745;28;93388;-77
2023/07/13 02:38:01;;;;;;;4.07;1.45;;;;;;;;;;4992976;28;91908;-78
2023/07/13 02:40:28;;;;;;;9.55;1.83;;;;;;;;;;4979328;28;93304;-77
2023/07/13 02:42:55;;;;;;;8.85;1.90;;;;;;;;;;4980934;28;95696;-77
2023/07/13 02:45:21;;;;;;;7.28;1.70;;;;;;;;;;4988638;28;94898;-78
2023/07/13 02:47:48;;;;;;;9.63;1.80;;;;;;;;;;4990735;28;99185;-77
2023/07/13 02:50:14;;;;;;;7.13;1.80;;;;;;;;;;4991034;28;93700;-77
2023/07/13 02:52:41;;;;;;;6.38;1.65;;;;;;;;;;4990613;28;92546;-77
2023/07/13 02:55:09;;;;;;;5.65;1.67;;;;;;;;;;4995016;28;93807;-77
2023/07/13 02:57:40;;;;;;;6.72;1.50;;;;;;;;;;5001153;28;92993;-77
2023/07/13 03:00:07;;;;;;;6.55;1.60;;;;;;;;;;4992014;28;93232;-77
2023/07/13 03:02:34;;;;;;;6.68;1.58;;;;;;;;;;4992490;28;92152;-77
2023/07/13 03:05:01;;;;;;;6.35;1.88;;;;;;;;;;4992165;28;92492;-77
2023/07/13 03:07:29;;;;;;;7.82;1.60;;;;;;;;;;4990518;28;94832;-77
2023/07/13 03:09:57;;;;;;;7.60;1.63;;;;;;;;;;4989946;28;95482;-77
2023/07/13 03:12:26;;;;;;;7.13;1.80;;;;;;;;;;4984776;28;92901;-77
2023/07/13 03:14:53;;;;;;;8.93;1.80;;;;;;;;;;4991056;28;92718;-77
2023/07/13 03:17:20;;;;;;;6.60;1.60;;;;;;;;;;4993222;28;94405;-77
2023/07/13 03:19:49;;;;;;;7.55;1.52;;;;;;;;;;4990238;28;94068;-77
2023/07/13 03:22:17;;;;;;;7.97;1.95;;;;;;;;;;4990255;28;94324;-77
2023/07/13 03:24:44;;;;;;;6.63;1.80;;;;;;;;;;4988023;28;92470;-77
2023/07/13 03:27:11;;;;;;;8.30;1.92;;;;;;;;;;4992459;28;93312;-77
2023/07/13 03:29:41;;;;;;;6.10;1.88;;;;;;;;;;4990596;28;95771;-77
2023/07/13 03:32:08;;;;;;;9.13;2.05;;;;;;;;;;4991852;28;92510;-77
2023/07/13 03:34:34;;;;;;;7.57;2.08;;;;;;;;;;4988864;28;95739;-78
2023/07/13 03:37:01;;;;;;;9.02;1.88;;;;;;;;;;4989044;28;95695;-78
2023/07/13 03:39:28;;;;;;;8.10;2.15;;;;;;;;;;4989742;28;92493;-78
2023/07/13 03:41:57;;;;;;;8.25;1.73;;;;;;;;;;4996423;28;95968;-78
2023/07/13 03:44:23;;;;;;;7.82;1.92;;;;;;;;;;4989929;28;92434;-78
2023/07/13 03:46:54;;;;;;;7.22;1.90;;;;;;;;;;4989610;28;95150;-78
2023/07/13 03:49:20;;;;;;;5.70;1.67;;;;;;;;;;4991310;28;93076;-78
2023/07/13 03:51:47;;;;;;;6.78;2.00;;;;;;;;;;4989494;28;93011;-78
2023/07/13 03:54:16;;;;;;;6.35;1.50;;;;;;;;;;4990399;28;92768;-77
2023/07/13 03:56:43;;;;;;;9.82;2.10;;;;;;;;;;4997218;28;95360;-78
2023/07/13 03:59:11;;;;;;;9.27;1.85;;;;;;;;;;4989560;28;94922;-77
2023/07/13 04:01:38;;;;;;;10.23;2.17;;;;;;;;;;4991901;28;96274;-77
2023/07/13 04:04:04;;;;;;;7.28;1.92;;;;;;;;;;4989569;28;92572;-77
2023/07/13 04:06:31;;;;;;;7.90;2.13;;;;;;;;;;4990526;28;93233;-77
2023/07/13 04:09:00;;;;;;;8.32;1.95;;;;;;;;;;4990526;28;92797;-78
2023/07/13 04:11:28;;;;;;;6.55;2.00;;;;;;;;;;4992440;28;92561;-78
2023/07/13 04:13:55;;;;;;;8.60;2.10;;;;;;;;;;4996695;28;92452;-77
2023/07/13 04:16:22;;;;;;;7.57;2.00;;;;;;;;;;4990989;28;92507;-78
2023/07/13 04:18:54;;;;;;;6.35;1.83;;;;;;;;;;4989029;28;92395;-78
2023/07/13 04:21:22;;;;;;;8.13;2.00;;;;;;;;;;4993427;28;93506;-78
2023/07/13 04:23:48;;;;;;;7.82;2.10;;;;;;;;;;4987697;28;95604;-79
2023/07/13 04:26:15;;;;;;;8.57;1.98;;;;;;;;;;4991313;28;95323;-79
2023/07/13 04:28:41;;;;;;;8.02;2.00;;;;;;;;;;4989834;28;96098;-78
2023/07/13 04:31:08;;;;;;;9.55;2.20;;;;;;;;;;4989233;28;92655;-77
2023/07/13 04:33:35;;;;;;;8.32;2.10;;;;;;;;;;4988634;28;93819;-77
2023/07/13 04:36:01;;;;;;;8.88;2.28;;;;;;;;;;4989219;28;92935;-78
2023/07/13 04:38:29;;;;;;;9.90;2.10;;;;;;;;;;4990576;28;92654;-78
2023/07/13 04:40:56;;;;;;;10.80;2.28;;;;;;;;;;4991637;28;92558;-77
2023/07/13 04:43:23;;;;;;;;;;;;;;;;;;4999413;28;93201;-78
2023/07/13 04:45:50;;;;;;;8.35;1.90;;;;;;;;;;4990051;28;93917;-78
2023/07/13 04:48:19;;;;;;;7.55;2.17;;;;;;;;;;4975902;28;95566;-78
2023/07/13 04:50:45;;;;;;;7.00;2.08;;;;;;;;;;4988780;28;92441;-77
2023/07/13 04:53:13;;;;;;;7.72;2.00;;;;;;;;;;4990022;28;93758;-77
2023/07/13 04:55:40;;;;;;;8.82;2.22;;;;;;;;;;4989646;28;93245;-77
2023/07/13 04:58:07;;;;;;;10.15;2.47;;;;;;;;;;4998426;28;93003;-77
2023/07/13 05:00:33;;;;;;;8.63;2.20;;;;;;;;;;4989651;28;92778;-78
2023/07/13 05:03:00;;;;;;;9.18;2.13;;;;;;;;;;4979710;28;93155;-77
2023/07/13 05:05:27;;;;;;;9.25;2.20;;;;;;;;;;4993016;28;91844;-78
2023/07/13 05:07:54;;;;;;;8.95;2.35;;;;;;;;;;4988065;28;93064;-78
2023/07/13 05:10:20;;;;;;;9.52;2.15;;;;;;;;;;4989417;28;92424;-77
2023/07/13 05:12:47;;;;;;;8.77;2.22;;;;;;;;;;4998431;28;94955;-77
2023/07/13 05:15:14;;;;;;;11.93;2.20;;;;;;;;;;4986429;28;93286;-78
2023/07/13 05:17:40;;;;;;;9.27;2.20;;;;;;;;;;4986491;28;92905;-79
2023/07/13 05:20:08;;;;;;;9.35;2.50;;;;;;;;;;4989847;28;93622;-79
2023/07/13 05:22:35;;;;;;;;;;;;;;;;;;4991318;28;93567;-78
2023/07/13 05:25:03;;;;;;;8.35;2.47;;;;;;;;;;4991204;28;92434;-78
2023/07/13 05:27:29;;;;;;;8.38;2.47;;;;;;;;;;4992468;28;92834;-78
2023/07/13 05:29:56;;;;;;;8.90;2.40;;;;;;;;;;4981493;28;91673;-78
2023/07/13 05:32:22;;;;;;;9.73;2.60;;;;;;;;;;4988067;28;92989;-78
2023/07/13 05:34:49;;;;;;;9.90;2.75;;;;;;;;;;4989114;28;93503;-77
2023/07/13 05:37:15;;;;;;;10.45;2.58;;;;;;;;;;4987886;28;95229;-78
2023/07/13 05:39:42;;;;;;;12.02;2.80;;;;;;;;;;4981632;28;94393;-77
2023/07/13 05:42:08;;;;;;;9.82;2.85;;;;;;;;;;4997782;28;93505;-78
2023/07/13 05:44:35;;;;;;;12.25;3.03;;;;;;;;;;4984673;28;92668;-77
2023/07/13 05:47:01;;;;;;;10.25;3.20;;;;;;;;;;4983856;28;93087;-77
2023/07/13 05:49:30;;;;;;;12.60;3.30;;;;;;;;;;4991863;28;94349;-77
2023/07/13 05:51:57;;;;;;;9.60;3.00;;;;;;;;;;4988932;28;92754;-78
2023/07/13 05:54:24;;;;;;;12.68;3.13;;;;;;;;;;4987804;28;93333;-77
2023/07/13 05:56:51;;;;;;;9.10;2.67;;;;;;;;;;4997388;28;92932;-78
2023/07/13 05:59:17;;;;;;;12.45;3.00;;;;;;;;;;4971799;28;92888;-77
2023/07/13 06:01:44;;;;;;;11.13;2.72;;;;;;;;;;4978648;28;95586;-77
2023/07/13 06:04:11;;;;;;;11.20;2.90;;;;;;;;;;4989343;28;93035;-78
2023/07/13 06:06:37;;;;;;;11.82;3.47;;;;;;;;;;4988543;28;93040;-77
2023/07/13 06:09:04;;;;;;;13.15;3.97;;;;;;;;;;4989142;28;93586;-77
2023/07/13 06:11:30;;;;;;;10.57;2.80;;;;;;;;;;4992731;28;92423;-77
2023/07/13 06:13:57;;;;;;;11.23;3.63;;;;;;;;;;4986745;28;93042;-77
2023/07/13 06:16:23;;;;;;;12.18;3.00;;;;;;;;;;4989623;28;92434;-79
2023/07/13 06:18:50;;;;;;;12.45;3.28;;;;;;;;;;4990071;28;93063;-78
2023/07/13 06:21:18;;;;;;;13.90;4.20;;;;;;;;;;4988414;28;93300;-78
2023/07/13 06:23:47;;;;;;;16.88;4.78;;;;;;;;;;4988922;28;92515;-78
2023/07/13 06:26:14;;;;;;;12.93;3.75;;;;;;;;;;4986915;28;94901;-80
2023/07/13 06:28:40;;;;;;;11.82;3.63;;;;;;;;;;4989937;28;93271;-78
2023/07/13 06:31:07;;;;;;;15.95;4.50;;;;;;;;;;4993339;28;92522;-78
2023/07/13 06:33:34;;;;;;;14.15;3.83;;;;;;;;;;4989953;28;94554;-78
2023/07/13 06:36:01;;;;;;;11.70;3.58;;;;;;;;;;4987871;28;92692;-78
2023/07/13 06:38:28;;;;;;;11.02;3.92;;;;;;;;;;4988662;28;92973;-78
2023/07/13 06:40:55;;;;;;;9.95;3.05;;;;;;;;;;4987878;28;93714;-78
2023/07/13 06:43:21;;;;;;;11.13;3.30;;;;;;;;;;4992742;28;91743;-78
2023/07/13 06:45:49;;;;;;;11.85;3.58;;;;;;;;;;4988114;28;93030;-78
2023/07/13 06:48:18;;;;;;;11.70;3.75;;;;;;;;;;4987985;28;93792;-79
2023/07/13 06:50:44;;;;;;;13.00;4.00;;;;;;;;;;4978888;28;94966;-77
2023/07/13 06:53:12;;;;;;;15.05;4.72;;;;;;;;;;4986044;28;95094;-78
2023/07/13 06:55:38;;;;;;;10.98;4.22;;;;;;;;;;4980672;28;92432;-77
2023/07/13 06:58:05;;;;;;;11.82;4.00;;;;;;;;;;4989945;28;92436;-79
2023/07/13 07:00:32;;;;;;;13.25;4.15;;;;;;;;;;4991404;28;92678;-78
2023/07/13 07:02:59;;;;;;;11.68;4.30;;;;;;;;;;4989933;28;92460;-78
2023/07/13 07:05:25;;;;;;;15.48;4.60;;;;;;;;;;4991419;28;92882;-78
2023/07/13 07:07:54;;;;;;;9.77;4.45;;;;;;;;;;4990617;28;92329;-78
2023/07/13 07:10:21;;;;;;;14.40;4.93;;;;;;;;;;4993207;28;93087;-79
2023/07/13 07:12:48;;;;;;;10.75;4.53;;;;;;;;;;4997225;28;92991;-78
2023/07/13 07:15:15;;;;;;;11.77;4.32;;;;;;;;;;4991010;28;96476;-78
2023/07/13 07:17:49;;;;;;;10.45;4.60;;;;;;;;;;4989872;28;96358;-78
2023/07/13 07:20:15;;;;;;;12.48;4.20;;;;;;;;;;4989770;28;92972;-78
2023/07/13 07:22:42;;;;;;;13.05;4.78;;;;;;;;;;4980912;28;92824;-78
2023/07/13 07:25:09;;;;;;;11.52;4.40;;;;;;;;;;4988286;28;95290;-79
2023/07/13 07:27:35;;;;;;;10.70;4.85;;;;;;;;;;4999927;28;92479;-78
2023/07/13 07:30:05;;;;;;;15.00;4.97;;;;;;;;;;4990678;28;92611;-78
2023/07/13 07:32:35;;;;;;;12.23;4.90;;;;;;;;;;4991100;28;94856;-78
2023/07/13 07:35:04;;;;;;;13.13;5.35;;;;;;;;;;4989135;28;93213;-78
2023/07/13 07:37:31;;;;;;;12.50;4.80;;;;;;;;;;4985586;28;92423;-77
2023/07/13 07:40:00;;;;;;;13.95;4.72;;;;;;;;;;4973258;28;95493;-77
2023/07/13 07:42:30;;;;;;;12.15;4.50;;;;;;;;;;4992918;28;92734;-79
2023/07/13 07:44:56;;;;;;;13.65;6.10;;;;;;;;;;4981093;28;92997;-80
2023/07/13 07:47:23;;;;;;;14.00;5.57;;;;;;;;;;4971578;28;94270;-78
2023/07/13 07:49:50;;;;;;;;;;;;;;;;;;4978439;28;93027;-79
2023/07/13 07:52:17;;;;;;;11.13;4.90;;;;;;;;;;4994824;28;99955;-76
2023/07/13 07:54:43;;;;;;;11.75;4.80;;;;;;;;;;4983956;28;92513;-77
2023/07/13 07:57:13;;;;;;;10.65;4.53;;;;;;;;;;4994641;28;91795;-77
2023/07/13 07:59:42;;;;;;;12.77;5.18;;;;;;;;;;4996347;28;92589;-77
2023/07/13 08:02:12;;;;;;;14.70;5.28;;;;;;;;;;4988952;28;92570;-76
2023/07/13 08:04:58;;;;;;;14.30;5.72;;;;;;;;;;4996692;28;94996;-76
2023/07/13 08:07:29;;;;;;;13.68;5.10;;;;;;;;;;5003128;28;93132;-76
2023/07/13 08:09:56;;;;;;;12.90;5.18;;;;;;;;;;4993888;28;92494;-76
2023/07/13 08:12:23;;;;;;;13.90;5.57;;;;;;;;;;5007577;28;92822;-76
2023/07/13 08:14:57;;;;;;;15.05;5.28;;;;;;;;;;4992352;28;92967;-76
2023/07/13 08:17:24;;;;;;;14.85;5.93;;;;;;;;;;4993446;28;92548;-76
2023/07/13 08:19:51;;;;;;;13.30;5.85;;;;;;;;;;4989596;28;92818;-76
2023/07/13 08:22:17;;;;;;;13.40;5.10;;;;;;;;;;4994206;28;92826;-76
2023/07/13 08:24:45;;;;;;;14.40;5.40;;;;;;;;;;4985129;28;92408;-77
2023/07/13 08:27:11;;;;;;;11.45;4.68;;;;;;;;;;5000221;28;93284;-75
2023/07/13 08:29:38;;;;;;;13.80;6.30;;;;;;;;;;4989707;28;95358;-78
2023/07/13 08:32:08;;;;;;;14.18;6.30;;;;;;;;;;4987590;28;95896;-78
2023/07/13 08:34:36;;;;;;;12.85;5.10;;;;;;;;;;4982573;28;93403;-75
2023/07/13 08:37:02;;;;;;;12.93;4.85;;;;;;;;;;4990202;28;92491;-76
2023/07/13 08:39:33;;;;;;;11.80;4.22;;;;;;;;;;4984034;28;92869;-75
2023/07/13 08:42:07;;;;;;;9.18;3.30;;;;;;;;;;4994757;28;93980;-75
2023/07/13 08:44:44;;;;;;;8.60;3.33;;;;;;;;;;4987574;28;92725;-75
2023/07/13 08:47:11;;;;;;;8.48;3.30;;;;;;;;;;4982697;28;92823;-79
2023/07/13 08:49:38;;;;;;;8.07;3.05;;;;;;;;;;4990118;28;92873;-76
2023/07/13 08:52:09;;;;;;;8.35;2.80;;;;;;;;;;4989188;28;92635;-76
2023/07/13 08:54:38;;;;;;;9.40;3.13;;;;;;;;;;4986346;28;98228;-77
2023/07/13 08:57:19;;;;;;;11.38;3.03;;;;;;;;;;5000001;28;92516;-76
2023/07/13 08:59:46;;;;;;;7.63;3.00;;;;;;;;;;4970635;28;92951;-79
2023/07/13 09:02:22;;;;;;;9.65;2.78;;;;;;;;;;4968224;28;92906;-78
2023/07/13 09:04:50;;;;;;;9.48;2.85;;;;;;;;;;4986287;28;92408;-79
2023/07/13 09:07:28;;;;;;;8.77;3.03;;;;;;;;;;4968157;28;93136;-80
2023/07/13 09:10:13;;;;;;;5.65;2.42;;;;;;;;;;4972148;28;92428;-79
2023/07/13 09:12:40;;;;;;;;;;;;;;;;;;4991137;28;96104;-78
2023/07/13 09:15:17;;;;;;;7.40;2.80;;;;;;;;;;4989873;28;113284;-79
2023/07/13 09:17:52;;;;;;;8.10;2.67;;;;;;;;;;4990362;28;92829;-79
2023/07/13 09:20:28;;;;;;;8.27;2.88;;;;;;;;;;4967141;28;95775;-84
2023/07/13 09:22:55;;;;;;;7.35;2.88;;;;;;;;;;4969979;28;93290;-84
2023/07/13 09:25:22;;;;;;;7.25;2.72;;;;;;;;;;4971146;28;92444;-83
2023/07/13 09:27:49;;;;;;;8.05;2.40;;;;;;;;;;4996441;28;92853;-80
2023/07/13 09:30:16;;;;;;;7.50;2.60;;;;;;;;;;4988111;28;92920;-83
2023/07/13 09:32:45;;;;;;;7.88;2.90;;;;;;;;;;4988708;28;92721;-84
2023/07/13 09:35:14;;;;;;;8.88;2.80;;;;;;;;;;4988342;28;93997;-84
2023/07/13 09:37:43;;;;;;;9.77;2.85;;;;;;;;;;4988841;28;91722;-84
2023/07/13 09:40:14;;;;;;;6.78;2.53;;;;;;;;;;4985185;28;93403;-82
2023/07/13 09:42:42;;;;;;;6.38;2.47;;;;;;;;;;4984127;28;93039;-84
2023/07/13 09:45:09;;;;;;;7.75;2.70;;;;;;;;;;4982785;28;94874;-85
2023/07/13 09:47:40;;;;;;;7.63;2.20;;;;;;;;;;4989591;28;95830;-84
2023/07/13 09:50:08;;;;;;;7.95;2.53;;;;;;;;;;4992863;28;93395;-85
2023/07/13 09:52:43;;;;;;;9.32;2.58;;;;;;;;;;4990227;28;93355;-82
2023/07/13 09:55:29;;;;;;;5.90;2.40;;;;;;;;;;4999361;28;93279;-84
2023/07/13 09:57:56;;;;;;;8.48;2.60;;;;;;;;;;4977976;28;92381;-83
2023/07/13 10:00:29;;;;;;;6.82;2.38;;;;;;;;;;4989375;28;92827;-83
2023/07/13 10:03:03;;;;;;;8.18;2.50;;;;;;;;;;4990613;28;92730;-82
2023/07/13 10:05:40;;;;;;;6.85;2.38;;;;;;;;;;4990557;28;93513;-84
2023/07/13 10:08:15;;;;;;;7.20;2.42;;;;;;;;;;4990217;28;92969;-84
2023/07/13 10:10:41;;;;;;;7.00;2.20;;;;;;;;;;4994839;28;97988;-83
2023/07/13 10:13:24;;;;;;;7.07;2.30;;;;;;;;;;4991701;28;92426;-83
2023/07/13 10:15:50;;;;;;;6.68;2.28;;;;;;;;;;4988263;28;92967;-84
2023/07/13 10:18:18;;;;;;;7.95;2.50;;;;;;;;;;4990041;28;92767;-84
2023/07/13 10:20:44;;;;;;;7.70;2.50;;;;;;;;;;4990059;28;92810;-84
2023/07/13 10:23:15;;;;;;;7.10;2.45;;;;;;;;;;4989988;28;92630;-83
2023/07/13 10:25:44;;;;;;;6.03;2.15;;;;;;;;;;4994995;28;92591;-84
2023/07/13 10:28:11;;;;;;;6.47;2.38;;;;;;;;;;4991307;28;93878;-83
2023/07/13 10:30:41;;;;;;;7.13;2.25;;;;;;;;;;4988902;28;92911;-84
2023/07/13 10:33:10;;;;;;;5.45;2.38;;;;;;;;;;4988572;28;92865;-84
2023/07/13 10:35:38;;;;;;;9.05;2.30;;;;;;;;;;4994156;28;94832;-84
2023/07/13 10:38:07;;;;;;;5.55;1.92;;;;;;;;;;4982061;28;92473;-82
2023/07/13 10:40:38;;;;;;;11.00;2.85;;;;;;;;;;4997977;28;92646;-83
2023/07/13 10:43:10;;;;;;;5.22;2.22;;;;;;;;;;5000227;28;94835;-83
2023/07/13 10:45:39;;;;;;;6.57;2.30;;;;;;;;;;4990815;28;92398;-82
2023/07/13 10:48:10;;;;;;;9.13;2.30;;;;;;;;;;4992104;28;92708;-81
2023/07/13 10:50:40;;;;;;;8.63;2.63;;;;;;;;;;4993498;28;92665;-83
2023/07/13 10:53:25;;;;;;;8.73;2.30;;;;;;;;;;4990094;28;92208;-84
2023/07/13 10:55:51;;;;;;;7.35;2.38;;;;;;;;;;4998995;28;93105;-84
2023/07/13 10:58:19;;;;;;;6.28;2.25;;;;;;;;;;5002053;28;92640;-84
2023/07/13 11:00:48;;;;;;;7.05;1.90;;;;;;;;;;4991465;28;94785;-82
2023/07/13 11:03:18;;;;;;;6.93;2.00;;;;;;;;;;4993337;28;95182;-84
2023/07/13 11:05:47;;;;;;;5.95;2.17;;;;;;;;;;4993288;28;92576;-83
2023/07/13 11:08:32;;;;;;;6.03;2.00;;;;;;;;;;4988447;28;94864;-84
2023/07/13 11:10:59;;;;;;;5.60;2.00;;;;;;;;;;4975887;28;94424;-83
2023/07/13 11:13:36;;;;;;;7.55;2.22;;;;;;;;;;5002079;28;92523;-82
2023/07/13 11:16:13;;;;;;;5.70;2.10;;;;;;;;;;4988361;28;98541;-83
2023/07/13 11:18:44;;;;;;;4.65;1.80;;;;;;;;;;4995446;28;98780;-82
2023/07/13 11:21:32;;;;;;;5.45;2.10;;;;;;;;;;4989571;28;99553;-83
2023/07/13 11:24:04;;;;;;;5.75;2.10;;;;;;;;;;4988728;28;99208;-83
2023/07/13 11:26:40;;;;;;;6.20;2.22;;;;;;;;;;4984205;28;99314;-83
2023/07/13 11:29:33;;;;;;;7.47;2.33;;;;;;;;;;4989768;28;99528;-81
2023/07/13 11:32:01;;;;;;;6.78;2.40;;;;;;;;;;4977889;28;99454;-83
2023/07/13 11:34:37;;;;;;;5.63;1.90;;;;;;;;;;4985954;28;98607;-82
2023/07/13 11:37:11;;;;;;;5.25;2.05;;;;;;;;;;4976335;28;99243;-83
2023/07/13 11:39:42;;;;;;;7.15;2.35;;;;;;;;;;4985124;28;101224;-83
2023/07/13 11:42:14;;;;;;;6.40;2.13;;;;;;;;;;4994449;28;98601;-84
2023/07/13 11:44:43;;;;;;;6.05;2.15;;;;;;;;;;4978900;28;98257;-83
2023/07/13 11:47:31;;;;;;;4.75;2.03;;;;;;;;;;4976361;28;98659;-84
2023/07/13 11:50:01;;;;;;;7.22;2.40;;;;;;;;;;4974871;28;98984;-84
2023/07/13 11:52:33;;;;;;;7.82;2.15;;;;;;;;;;4981867;28;101483;-83
2023/07/13 11:55:01;;;;;;;6.63;2.50;;;;;;;;;;4974024;28;99055;-83
2023/07/13 11:57:33;;;;;;;8.25;2.45;;;;;;;;;;4995227;28;98968;-83
2023/07/13 12:00:20;;;;;;;7.15;2.53;;;;;;;;;;4987388;28;99105;-83
2023/07/13 12:02:51;;;;;;;7.07;2.40;;;;;;;;;;4987846;28;99100;-83
2023/07/13 12:05:20;;;;;;;6.30;2.42;;;;;;;;;;4990788;28;98691;-83
2023/07/13 12:07:47;;;;;;;6.72;2.38;;;;;;;;;;4987074;28;99113;-82
2023/07/13 12:10:17;;;;;;;6.10;2.33;;;;;;;;;;4988846;28;98785;-82
2023/07/13 12:12:48;;;;;;;7.72;2.60;;;;;;;;;;4996500;28;99407;-82
2023/07/13 12:15:15;;;;;;;6.30;2.53;;;;;;;;;;4987715;28;98634;-82
2023/07/13 12:17:42;;;;;;;6.40;2.38;;;;;;;;;;4980550;28;99754;-83
2023/07/13 12:20:24;;;;;;;6.35;2.40;;;;;;;;;;4985147;28;99892;-82
2023/07/13 12:22:53;;;;;;;6.35;2.28;;;;;;;;;;4988527;28;99321;-84
2023/07/13 12:25:21;;;;;;;6.95;2.40;;;;;;;;;;4987379;28;99397;-83
2023/07/13 12:27:49;;;;;;;7.30;2.40;;;;;;;;;;4982687;28;99274;-83
2023/07/13 12:30:28;;;;;;;7.20;2.67;;;;;;;;;;4985671;28;100413;-83
2023/07/13 12:33:08;;;;;;;4.72;2.15;;;;;;;;;;4982584;28;99612;-84
2023/07/13 12:35:40;;;;;;;6.85;2.42;;;;;;;;;;4977747;28;97868;-82
2023/07/13 12:38:08;;;;;;;6.43;2.40;;;;;;;;;;4988619;28;98902;-83
2023/07/13 12:40:36;;;;;;;7.00;2.40;;;;;;;;;;4987361;28;99704;-83
2023/07/13 12:43:06;;;;;;;6.22;2.20;;;;;;;;;;4995379;28;99638;-84
2023/07/13 12:45:33;;;;;;;6.60;2.50;;;;;;;;;;4987459;28;100736;-83
2023/07/13 12:48:05;;;;;;;5.68;2.10;;;;;;;;;;4993872;28;99305;-83
2023/07/13 12:50:40;;;;;;;4.82;1.92;;;;;;;;;;4994715;28;98916;-84
2023/07/13 12:53:14;;;;;;;5.57;2.20;;;;;;;;;;4992929;28;101094;-85
2023/07/13 12:55:42;;;;;;;5.85;2.22;;;;;;;;;;4987039;28;98531;-84
2023/07/13 12:58:14;;;;;;;5.85;2.38;;;;;;;;;;4979075;28;99304;-85
2023/07/13 13:00:41;;;;;;;6.50;2.30;;;;;;;;;;4980734;28;98871;-84
2023/07/13 13:03:17;;;;;;;5.65;2.30;;;;;;;;;;4994719;28;99058;-83
2023/07/13 13:05:59;;;;;;;6.00;2.50;;;;;;;;;;4991775;28;98985;-84
2023/07/13 13:08:26;;;;;;;6.93;2.50;;;;;;;;;;4970399;28;101729;-84
2023/07/13 13:10:53;;;;;;;;;;;;;;;;;;4992637;28;99049;-84
2023/07/13 13:13:19;;;;;;;10.93;2.15;;;;;;;;;;4996679;28;114601;-84
2023/07/13 13:15:47;;;;;;;9.82;2.35;;;;;;;;;;4980828;28;99108;-82
2023/07/13 13:18:21;;;;;;;13.02;2.40;;;;;;;;;;4988316;28;99462;-82
2023/07/13 13:20:49;;;;;;;6.43;2.30;;;;;;;;;;4986215;28;100080;-81
2023/07/13 13:23:17;;;;;;;9.85;2.45;;;;;;;;;;4977762;28;98669;-82
2023/07/13 13:25:45;;;;;;;7.38;2.00;;;;;;;;;;4968428;28;98662;-84
2023/07/13 13:28:14;;;;;;;6.28;2.05;;;;;;;;;;4979373;28;99189;-83
2023/07/13 13:30:40;;;;;;;5.75;2.20;;;;;;;;;;4987455;28;99219;-82
2023/07/13 13:33:10;;;;;;;6.13;2.40;;;;;;;;;;4990171;28;99868;-83
2023/07/13 13:35:36;;;;;;;6.70;2.20;;;;;;;;;;4986825;28;99003;-85
2023/07/13 13:38:33;;;;;;;6.40;2.40;;;;;;;;;;4988198;28;98875;-84
2023/07/13 13:40:59;;;;;;;6.18;2.10;;;;;;;;;;4988360;28;99115;-84
2023/07/13 13:43:26;;;;;;;4.70;2.20;;;;;;;;;;4988208;28;98547;-84
2023/07/13 13:45:55;;;;;;;4.93;2.30;;;;;;;;;;4985635;28;98786;-82
2023/07/13 13:48:30;;;;;;;8.00;2.50;;;;;;;;;;4988575;28;100880;-85
2023/07/13 13:50:57;;;;;;;6.20;2.20;;;;;;;;;;4986696;28;97754;-85
2023/07/13 13:53:23;;;;;;;5.35;2.33;;;;;;;;;;4987316;28;98541;-87
2023/07/13 13:55:52;;;;;;;6.75;2.30;;;;;;;;;;4986937;28;100713;-87
2023/07/13 13:58:18;;;;;;;6.40;2.20;;;;;;;;;;4994501;28;99289;-84
2023/07/13 14:00:45;;;;;;;5.43;2.30;;;;;;;;;;4985703;28;99155;-83
2023/07/13 14:03:16;;;;;;;6.35;2.33;;;;;;;;;;4985825;28;98946;-85
2023/07/13 14:05:43;;;;;;;6.78;2.30;;;;;;;;;;4986274;28;99982;-83
2023/07/13 14:08:17;;;;;;;5.60;2.30;;;;;;;;;;4987702;28;99778;-86
2023/07/13 14:10:44;;;;;;;5.22;2.28;;;;;;;;;;4979506;28;98576;-84
2023/07/13 14:13:11;;;;;;;;;;;;;;;;;;5000081;28;100395;-83
2023/07/13 14:15:37;;;;;;;5.30;2.30;;;;;;;;;;4974900;28;109200;-86
2023/07/13 14:18:04;;;;;;;5.90;2.30;;;;;;;;;;4991433;28;99333;-85
2023/07/13 14:20:30;;;;;;;5.90;2.20;;;;;;;;;;4988689;28;99198;-82
2023/07/13 14:22:57;;;;;;;7.82;2.50;;;;;;;;;;4988948;28;99609;-83
2023/07/13 14:25:25;;;;;;;7.45;2.45;;;;;;;;;;4989247;28;99778;-84
2023/07/13 14:27:56;;;;;;;7.95;2.58;;;;;;;;;;4987984;28;100275;-81
2023/07/13 14:30:23;;;;;;;5.40;2.22;;;;;;;;;;4989180;28;99707;-82
2023/07/13 14:32:49;;;;;;;7.07;2.42;;;;;;;;;;4978447;28;99720;-83
2023/07/13 14:35:17;;;;;;;7.07;2.40;;;;;;;;;;4986478;28;99268;-83
2023/07/13 14:37:46;;;;;;;6.70;2.50;;;;;;;;;;4987233;28;98550;-83
2023/07/13 14:40:13;;;;;;;8.00;2.53;;;;;;;;;;4978592;28;99713;-83
2023/07/13 14:42:40;;;;;;;7.78;2.85;;;;;;;;;;4999324;28;98968;-82
2023/07/13 14:45:14;;;;;;;8.00;2.63;;;;;;;;;;4989027;28;98759;-83
2023/07/13 14:47:40;;;;;;;5.93;2.42;;;;;;;;;;4979755;28;99840;-82
2023/07/13 14:50:12;;;;;;;6.50;2.40;;;;;;;;;;4981625;28;99377;-81